Neshanic Station, NJ (08853)

9:56 AM EDT on May 25, 2015 (GMT -0400)
T and G Farms | | Change Station
CLOSE
Current Station
Personal Weather Station
Location: Branchburg, NJ
Elevation: 141 ft
Nearby Weather Stations

Elev 141 ft 40.51 °N, 74.74 °W | Updated 32 seconds ago

Clear
Clear
74.8 °F
Feels Like 78 °F
N
0.0
Wind Variable Wind from SSE
Gusts 0.0 mph

Today
High -- | Low -- °F
--% Chance of Precip.
Yesterday
High -- | Low -- °F
Precip. -- in
5:34 AM 8:17 PM
Waxing Crescent, 49% visible
Pressure 30.27 in
Visibility 10.0 miles
Clouds Clear
Heat Index 78 °F
Dew Point 56 °F
Humidity 51%
Rainfall 0.00 in
Snow Depth Not available.
UV 4 out of 12
Pollen 9.40 out of 12
Air Quality Not available.
Flu Activity Sporadic
METAR KSMQ 251253Z AUTO 20004KT 10SM CLR 20/14 A3027 RMK AO2 SLP249 T02000139 TSNO $

More Conditions Fewer Conditions

Pressure 30.27 in
Visibility 10.0 miles
Clouds Clear
Heat Index 78 °F
Dew Point 56 °F
Humidity 51%
Rainfall 0.00 in
Snow Depth Not available.
UV 4 out of 12
Pollen 9.40 out of 12
Air Quality Not available.
Flu Activity Sporadic
METAR KSMQ 251253Z AUTO 20004KT 10SM CLR 20/14 A3027 RMK AO2 SLP249 T02000139 TSNO $

More Conditions Fewer Conditions

10-Day Weather Forecast

Almanac

Astronomy

May. 25, 2015 Rise Set
Actual Time
Civil Twilight
Nautical Twilight
Astronomical Twilight
Moon
Length of Visible Light
Length of Day
Tomorrow will be .
, % of the Moon is Illuminated

Today's Extremes

State Highs State Lows

Community

WunderPhotos

Upload Photos

1,824,009 photos uploaded!

WunderBlogs® & News

Nearby

Air Quality

  Air Quality AQ Index Pollutant
Not available.

Snow Depth

Station Depth Elevation

Earthquake Activity

City Distance Mag. Time & Date
Minimum magnitude displayed is 2.5.

Coastal Water Temperatures

Place Temperature

Stations

Nearby Weather Stations

Station Location Temp. Windchill Dew Point Humidity Wind Precip. Elev Updated Type